Ashfield, Pennsylvania
Current Conditions -  °F | °C
As of 3:51 AM on Thursday 27 Nov 2014 (Local Time) from KABE Reporting Station
Overcast Overcast  
Wind Chill: 28°   Ceiling: 6000
Heat Index: 34°   Visibility: 10mi
Dew Point: 27°   Wind: 7mph
Humidity: 75%   Direction: 280°W
Pressure: 29.95"   Gusts: NA
Location:  40.78°N, 75.71°W
Report Text: KABE 270851Z 28006KT 10SM OVC060 01/M03 A2995 RMK AO2 SLP147 T00111028 51016 $
Loading
Personal Weather Stations






























Interactive Weather Map New forecast layout! Learn more

10-Day Weather Forecast

Advertisements
Track Severe Weather on mobile